createdAt,value
2022-08-24T00:03:16.278Z,65
2022-08-24T00:08:16.447Z,65
2022-08-24T00:13:15.868Z,65
2022-08-24T00:18:15.942Z,66
2022-08-24T00:23:16.148Z,66
2022-08-24T00:28:16.198Z,66
2022-08-24T00:33:16.174Z,66
2022-08-24T00:38:16.326Z,67
2022-08-24T00:43:15.506Z,67
2022-08-24T00:48:15.609Z,67
2022-08-24T00:53:15.784Z,67
2022-08-24T00:58:20.659Z,69
2022-08-24T01:03:15.594Z,69
2022-08-24T01:08:15.835Z,70
2022-08-24T01:13:15.934Z,70
2022-08-24T01:18:16.487Z,71
2022-08-24T01:23:16.325Z,71
2022-08-24T01:28:19.816Z,73
2022-08-24T01:33:17.406Z,73
2022-08-24T01:38:16.247Z,73
2022-08-24T01:43:16.371Z,73
2022-08-24T01:48:23.417Z,73
2022-08-24T01:53:16.289Z,73
2022-08-24T01:58:16.494Z,71
2022-08-24T02:03:16.142Z,71
2022-08-24T02:08:15.768Z,72
2022-08-24T02:13:16.027Z,72
2022-08-24T02:18:16.182Z,72
2022-08-24T02:23:16.239Z,72
2022-08-24T02:28:16.267Z,73
2022-08-24T02:33:16.444Z,73
2022-08-24T02:38:16.256Z,74
2022-08-24T02:43:16.489Z,74
2022-08-24T02:48:15.803Z,75
2022-08-24T02:53:16.253Z,75
2022-08-24T02:58:15.697Z,75
2022-08-24T03:03:16.343Z,75
2022-08-24T03:08:16.324Z,75
2022-08-24T03:13:15.621Z,75
2022-08-24T03:18:15.919Z,75
2022-08-24T03:23:15.853Z,75
2022-08-24T03:28:15.593Z,75
2022-08-24T03:33:15.728Z,75
2022-08-24T03:38:15.889Z,76
2022-08-24T03:43:16.293Z,76
2022-08-24T03:48:15.666Z,77
2022-08-24T03:53:15.847Z,77
2022-08-24T03:58:16.158Z,77
2022-08-24T04:03:16.403Z,77
2022-08-24T04:08:18.002Z,78
2022-08-24T04:13:16.206Z,78
2022-08-24T04:18:15.768Z,78
2022-08-24T04:23:16.652Z,78
2022-08-24T04:28:15.883Z,79
2022-08-24T04:33:15.845Z,79
2022-08-24T04:38:15.838Z,79
2022-08-24T04:43:20.221Z,79
2022-08-24T04:48:16.535Z,80
2022-08-24T04:53:15.963Z,80
2022-08-24T04:58:16.284Z,80
2022-08-24T05:03:16.768Z,80
2022-08-24T05:08:15.719Z,80
2022-08-24T05:13:16.354Z,80
2022-08-24T05:18:15.736Z,81
2022-08-24T05:23:15.892Z,81
2022-08-24T05:28:16.012Z,80
2022-08-24T05:33:16.240Z,80
2022-08-24T05:38:16.509Z,80
2022-08-24T05:43:15.947Z,80
2022-08-24T05:48:16.032Z,80
2022-08-24T05:53:16.406Z,80
2022-08-24T05:58:31.365Z,79
2022-08-24T06:03:15.831Z,79
2022-08-24T06:08:16.107Z,79
2022-08-24T06:13:16.358Z,79
2022-08-24T06:18:16.824Z,78
2022-08-24T06:23:16.014Z,78
2022-08-24T06:28:16.315Z,78
2022-08-24T06:33:16.423Z,78
2022-08-24T06:38:19.933Z,77
2022-08-24T06:43:16.681Z,77
2022-08-24T06:48:15.908Z,76
2022-08-24T06:53:15.975Z,76
2022-08-24T06:58:16.409Z,76
2022-08-24T07:03:15.982Z,76
2022-08-24T07:08:16.211Z,76
2022-08-24T07:13:16.001Z,76
2022-08-24T07:18:16.168Z,74
2022-08-24T07:23:16.438Z,74
2022-08-24T07:28:15.936Z,74
2022-08-24T07:33:16.277Z,74
2022-08-24T07:38:16.523Z,73
2022-08-24T07:43:15.907Z,73
2022-08-24T07:48:16.103Z,72
2022-08-24T07:53:27.896Z,72
2022-08-24T07:58:16.546Z,70
2022-08-24T08:03:16.079Z,70
2022-08-24T08:08:16.601Z,70
2022-08-24T08:13:15.748Z,70
2022-08-24T08:18:16.244Z,69
2022-08-24T08:23:16.674Z,69
2022-08-24T08:28:35.272Z,67
2022-08-24T08:33:16.294Z,67
2022-08-24T08:38:16.544Z,67
2022-08-24T08:43:16.208Z,67
2022-08-24T08:48:16.536Z,67
2022-08-24T08:53:15.891Z,67
2022-08-24T08:58:15.840Z,66
2022-08-24T09:03:16.507Z,66
2022-08-24T09:08:16.994Z,64
2022-08-24T09:13:16.657Z,64
2022-08-24T09:18:16.151Z,62
2022-08-24T09:23:16.352Z,62
2022-08-24T09:28:15.951Z,60
2022-08-24T09:33:16.508Z,60
2022-08-24T09:38:15.966Z,61
2022-08-24T09:43:16.590Z,61
2022-08-24T09:48:16.377Z,59
2022-08-24T09:53:16.583Z,59
2022-08-24T09:58:15.828Z,56
2022-08-24T10:03:21.861Z,56
2022-08-24T10:08:16.613Z,56
2022-08-24T10:13:16.074Z,56
2022-08-24T10:18:16.171Z,55
2022-08-24T10:23:16.948Z,55
2022-08-24T10:28:16.093Z,53
2022-08-24T10:33:16.352Z,53
2022-08-24T10:38:16.253Z,54
2022-08-24T10:43:16.634Z,54
2022-08-24T10:48:16.167Z,53
2022-08-24T10:53:16.262Z,53
2022-08-24T10:58:16.586Z,52
2022-08-24T11:03:15.823Z,52
2022-08-24T11:08:16.367Z,52
2022-08-24T11:13:16.732Z,52
2022-08-24T11:18:16.171Z,50
2022-08-24T11:23:16.311Z,50
2022-08-24T11:28:16.671Z,50
2022-08-24T11:33:15.896Z,50
2022-08-24T11:38:15.986Z,51
2022-08-24T11:43:16.130Z,51
2022-08-24T11:48:16.031Z,49
2022-08-24T11:53:16.905Z,49
2022-08-24T11:58:16.584Z,47
2022-08-24T12:03:16.356Z,47
2022-08-24T12:08:16.556Z,48
2022-08-24T12:13:16.706Z,48
2022-08-24T12:18:16.789Z,49
2022-08-24T12:23:15.946Z,49
2022-08-24T12:28:16.368Z,47
2022-08-24T12:33:16.478Z,47
2022-08-24T12:38:16.562Z,49
2022-08-24T12:43:16.724Z,49
2022-08-24T12:48:15.928Z,50
2022-08-24T12:53:16.226Z,50
2022-08-24T12:58:35.846Z,49
2022-08-24T13:03:16.300Z,49
2022-08-24T13:08:16.360Z,48
2022-08-24T13:13:16.378Z,48
2022-08-24T13:18:16.729Z,46
2022-08-24T13:23:16.907Z,46
2022-08-24T13:28:16.190Z,46
2022-08-24T13:33:16.296Z,46
2022-08-24T13:38:16.238Z,45
2022-08-24T13:43:16.536Z,45
2022-08-24T13:48:16.907Z,45
2022-08-24T13:53:16.028Z,45
2022-08-24T13:58:16.206Z,45
2022-08-24T14:03:16.696Z,45
2022-08-24T14:08:16.947Z,45
2022-08-24T14:13:16.762Z,45
2022-08-24T14:18:16.501Z,45
2022-08-24T14:23:16.800Z,45
2022-08-24T14:28:16.895Z,45
2022-08-24T14:33:20.437Z,45
2022-08-24T14:38:16.799Z,45
2022-08-24T14:43:16.110Z,45
2022-08-24T14:48:16.498Z,45
2022-08-24T14:53:16.816Z,45
2022-08-24T14:58:17.608Z,44
2022-08-24T15:03:16.632Z,44
2022-08-24T15:08:18.454Z,44
2022-08-24T15:13:16.300Z,44
2022-08-24T15:18:16.451Z,43
2022-08-24T15:23:16.718Z,43
2022-08-24T15:28:16.630Z,42
2022-08-24T15:33:19.978Z,42
2022-08-24T15:38:18.248Z,42
2022-08-24T15:43:16.287Z,42
2022-08-24T15:48:16.592Z,42
2022-08-24T15:53:16.737Z,42
2022-08-24T15:58:16.198Z,41
2022-08-24T16:03:17.207Z,41
2022-08-24T16:08:16.452Z,41
2022-08-24T16:13:17.084Z,41
2022-08-24T16:18:16.322Z,41
2022-08-24T16:23:16.683Z,41
2022-08-24T16:28:16.926Z,41
2022-08-24T16:33:16.100Z,41
2022-08-24T16:38:16.426Z,41
2022-08-24T16:43:16.502Z,41
2022-08-24T16:48:16.751Z,42
2022-08-24T16:53:16.036Z,42
2022-08-24T16:58:16.100Z,43
2022-08-24T17:03:16.619Z,43
2022-08-24T17:08:16.771Z,44
2022-08-24T17:18:16.376Z,45
2022-08-24T17:23:16.612Z,45
2022-08-24T17:28:16.796Z,46
2022-08-24T17:33:16.858Z,46
2022-08-24T17:38:16.962Z,46
2022-08-24T17:43:16.092Z,46
2022-08-24T17:48:16.103Z,46
2022-08-24T17:53:16.357Z,46
2022-08-24T17:58:16.470Z,46
2022-08-24T18:03:16.894Z,46
2022-08-24T18:08:16.220Z,46
2022-08-24T18:13:16.503Z,46
2022-08-24T18:18:17.441Z,47
2022-08-24T18:23:21.471Z,47
2022-08-24T18:28:18.148Z,48
2022-08-24T18:33:16.314Z,48
2022-08-24T18:38:17.068Z,51
2022-08-24T18:43:16.241Z,51
2022-08-24T18:48:16.320Z,61
2022-08-24T18:53:16.553Z,61
2022-08-24T18:58:16.696Z,66
2022-08-24T19:03:16.943Z,66
2022-08-24T19:08:16.212Z,68
2022-08-24T19:13:16.397Z,68
2022-08-24T19:18:16.630Z,70
2022-08-24T19:23:16.707Z,70
2022-08-24T19:28:16.771Z,71
2022-08-24T19:33:16.938Z,71
2022-08-24T19:38:16.589Z,72
2022-08-24T19:43:19.092Z,72
2022-08-24T19:48:17.142Z,73
2022-08-24T19:53:16.377Z,73
2022-08-24T19:58:16.448Z,74
2022-08-24T20:03:16.569Z,74
2022-08-24T20:08:16.677Z,75
2022-08-24T20:13:16.850Z,75
2022-08-24T20:18:16.898Z,75
2022-08-24T20:23:17.136Z,75
2022-08-24T20:28:31.110Z,76
2022-08-24T20:33:16.890Z,76
2022-08-24T20:38:17.111Z,77
2022-08-24T20:43:16.296Z,77
2022-08-24T20:48:16.435Z,78
2022-08-24T20:53:16.624Z,78
2022-08-24T20:58:16.347Z,79
2022-08-24T21:03:16.857Z,79
2022-08-24T21:08:17.272Z,79
2022-08-24T21:13:16.454Z,79
2022-08-24T21:18:16.265Z,80
2022-08-24T21:23:17.120Z,80
2022-08-24T21:28:16.428Z,80
2022-08-24T21:33:24.444Z,80
2022-08-24T21:38:17.847Z,82
2022-08-24T21:43:18.164Z,82
2022-08-24T21:48:16.615Z,82
2022-08-24T21:53:16.978Z,82
2022-08-24T21:58:16.757Z,83
2022-08-24T22:03:17.231Z,83
2022-08-24T22:08:16.436Z,82
2022-08-24T22:13:16.940Z,82
2022-08-24T22:18:17.046Z,82
2022-08-24T22:23:16.461Z,82
2022-08-24T22:28:16.632Z,83
2022-08-24T22:33:16.964Z,83
2022-08-24T22:38:16.736Z,82
2022-08-24T22:43:16.372Z,82
2022-08-24T22:48:16.718Z,81
2022-08-24T22:53:16.804Z,81
2022-08-24T22:58:17.198Z,81
2022-08-24T23:03:17.215Z,81
2022-08-24T23:08:16.416Z,81
2022-08-24T23:13:21.413Z,81
2022-08-24T23:18:17.774Z,82
2022-08-24T23:23:17.067Z,82
2022-08-24T23:28:17.188Z,82
2022-08-24T23:33:16.322Z,82
2022-08-24T23:38:17.164Z,82
2022-08-24T23:43:16.278Z,82
2022-08-24T23:48:16.427Z,82
2022-08-24T23:53:16.501Z,82
2022-08-24T23:58:16.597Z,82
